TAF and METAR

METAR for Menara International Airport

GMMX 192130Z 23007KT 9999 FEW030 SCT200 19/11 Q1016 NOSIG
Report created 19. okt 23:30
wind 7 knots from SW (230°) visibility > 10km some clouds (~25% cover) at 3000 feet scattered clouds (~50% cover) at 20000 feet Temperature 19° with dewpoint at 11° (Humidity 59.79%) Pressure 1016 hPa no significant weather change expected the next couple of hours

TAF for Menara International Airport

TAF GMMX 191700Z 1918/2024 28006KT 8000 NSC TEMPO 1919/1923 34016KT BECMG 2003/2005 BKN026
Report created 19. okt 19:00

between 19. okt 20:00 - 20. okt 02:00

wind 6 knots from W (280°) visibility 8000 meters No significant clouds.

temporarily between 19. okt 21:00 - 20. okt 01:00

wind 16 knots from NNW (340°)

becoming between 20. okt 05:00 - 20. okt 07:00

broken clouds (~75% cover) at 2600 feet
Menara International Airport in Morocco at 466m

Latest 5 airports